Time;durP1;ratioP1;P1;durP2;ratioP2;P2;SDS_P1;SDS_P2;PMS_P1;PMS_P2;Temp;Humidity;BMP_temperature;BMP_pressure;BME280_temperature;BME280_humidity;BME280_pressure;Samples;Min_cycle;Max_cycle;Signal;HPM_P1;HPM_P2
2023/01/04 00:02:17;;;;;;;7.13;2.30;;;;;;;6.51;84.82;101512.25;5049902;28;20217;-84
2023/01/04 00:04:44;;;;;;;5.10;2.30;;;;;;;6.49;84.29;101514.06;5046406;28;20222;-83
2023/01/04 00:07:10;;;;;;;6.47;2.40;;;;;;;6.49;84.31;101525.53;5048673;28;20257;-84
2023/01/04 00:09:37;;;;;;;2.93;1.70;;;;;;;6.50;84.63;101518.44;5044484;28;20209;-85
2023/01/04 00:12:04;;;;;;;6.30;2.53;;;;;;;6.47;84.03;101521.19;5048065;28;20696;-85
2023/01/04 00:14:30;;;;;;;6.37;2.13;;;;;;;6.47;84.20;101513.25;5041456;28;20202;-85
2023/01/04 00:16:58;;;;;;;4.17;2.00;;;;;;;6.45;84.03;101507.19;5038911;28;20198;-85
2023/01/04 00:19:24;;;;;;;4.93;2.07;;;;;;;6.45;84.36;101504.53;5044547;28;20212;-85
2023/01/04 00:21:52;;;;;;;3.87;2.00;;;;;;;6.42;83.76;101496.69;5046541;28;20218;-85
2023/01/04 00:24:18;;;;;;;3.77;2.10;;;;;;;6.41;84.34;101481.72;5048706;28;20229;-84
2023/01/04 00:26:45;;;;;;;3.43;2.13;;;;;;;6.38;83.74;101471.25;5043855;28;20209;-85
2023/01/04 00:29:12;;;;;;;2.97;1.87;;;;;;;6.37;83.98;101459.78;5043654;28;20225;-84
2023/01/04 00:31:39;;;;;;;5.00;2.60;;;;;;;6.35;83.72;101471.34;5050041;28;20202;-85
2023/01/04 00:34:07;;;;;;;2.50;1.80;;;;;;;6.37;84.39;101453.63;5051413;28;20197;-85
2023/01/04 00:36:34;;;;;;;4.50;2.00;;;;;;;6.36;84.11;101462.47;5051422;28;20217;-86
2023/01/04 00:39:08;;;;;;;3.77;2.30;;;;;;;6.36;83.71;101466.00;5047350;28;20594;-87
2023/01/04 00:41:36;;;;;;;3.53;2.17;;;;;;;6.36;83.90;101467.78;5050506;28;20220;-86
2023/01/04 00:44:03;;;;;;;5.30;2.43;;;;;;;6.34;84.28;101469.59;5048709;28;20654;-86
2023/01/04 00:46:30;;;;;;;4.20;2.27;;;;;;;6.33;84.16;101463.44;5048843;28;20649;-85
2023/01/04 00:48:57;;;;;;;3.27;1.97;;;;;;;6.31;83.90;101454.69;5049779;28;20225;-85
2023/01/04 00:51:25;;;;;;;3.67;2.57;;;;;;;6.31;83.86;101441.47;5049504;28;20209;-83
2023/01/04 00:53:52;;;;;;;8.40;3.13;;;;;;;6.28;84.26;101434.47;5049302;28;20640;-85
2023/01/04 00:56:18;;;;;;;5.33;2.73;;;;;;;6.30;84.13;101429.16;5049012;28;20278;-85
2023/01/04 00:58:45;;;;;;;5.50;2.30;;;;;;;6.31;83.91;101430.00;5059310;28;20232;-85
2023/01/04 01:01:11;;;;;;;5.00;2.80;;;;;;;6.28;84.22;101425.69;5053640;28;20205;-85
2023/01/04 01:03:38;;;;;;;3.97;2.53;;;;;;;6.27;84.22;101413.38;5053956;28;20197;-83
2023/01/04 01:06:06;;;;;;;3.80;2.50;;;;;;;6.26;84.01;101412.53;5054110;28;20206;-84
2023/01/04 01:08:34;;;;;;;6.37;2.97;;;;;;;6.25;84.17;101412.59;5052341;28;20226;-85
2023/01/04 01:11:04;;;;;;;6.80;3.83;;;;;;;6.25;84.09;101397.59;5052680;28;20202;-84
2023/01/04 01:13:30;;;;;;;3.67;2.47;;;;;;;6.25;84.06;101391.44;5054805;28;20201;-84
2023/01/04 01:16:02;;;;;;;7.50;2.70;;;;;;;6.19;84.12;101389.84;5053708;28;20205;-84
2023/01/04 01:18:29;;;;;;;5.27;2.50;;;;;;;6.21;84.11;101384.50;5053262;28;20326;-84
2023/01/04 01:20:55;;;;;;;4.07;2.50;;;;;;;6.20;84.36;101372.19;5060950;28;20201;-85
2023/01/04 01:23:22;;;;;;;3.17;2.57;;;;;;;6.18;84.40;101380.19;5054862;28;20206;-85
2023/01/04 01:25:49;;;;;;;6.87;2.30;;;;;;;6.19;84.34;101368.69;5053998;28;20232;-85
2023/01/04 01:28:16;;;;;;;3.97;2.43;;;;;;;6.16;84.26;101387.28;5046529;28;20681;-85
2023/01/04 01:30:43;;;;;;;3.33;2.37;;;;;;;6.15;84.68;101372.34;5050399;28;20206;-85
2023/01/04 01:33:10;;;;;;;5.67;2.50;;;;;;;6.14;84.87;101362.66;5053901;28;20213;-85
2023/01/04 01:35:37;;;;;;;5.30;2.43;;;;;;;6.14;84.99;101380.31;5053661;28;20209;-85
2023/01/04 01:38:03;;;;;;;3.63;2.40;;;;;;;6.11;84.71;101381.28;5054174;28;20738;-86
2023/01/04 01:40:30;;;;;;;5.80;2.23;;;;;;;6.11;84.86;101380.41;5053445;28;20212;-84
2023/01/04 01:42:58;;;;;;;3.57;2.30;;;;;;;6.09;84.92;101371.69;5051963;28;20645;-84
2023/01/04 01:45:28;;;;;;;3.03;2.10;;;;;;;6.09;84.84;101367.25;5050916;28;20238;-85
2023/01/04 01:48:01;;;;;;;4.17;2.23;;;;;;;6.11;84.65;101352.19;5051324;28;20226;-84
2023/01/04 01:50:31;;;;;;;3.27;2.10;;;;;;;6.11;84.60;101348.69;5048000;28;20719;-85
2023/01/04 01:53:00;;;;;;;5.87;1.83;;;;;;;6.14;84.77;101348.59;5056401;28;20200;-85
2023/01/04 01:55:29;;;;;;;4.67;2.43;;;;;;;6.17;84.48;101352.00;5054191;28;20209;-83
2023/01/04 01:57:57;;;;;;;5.17;2.63;;;;;;;6.15;84.16;101343.25;5052948;28;20237;-85
2023/01/04 02:00:25;;;;;;;3.17;1.63;;;;;;;6.15;84.67;101337.97;5050062;28;20284;-83
2023/01/04 02:03:00;;;;;;;2.70;1.60;;;;;;;6.16;84.81;101330.88;5050673;28;20201;-83
2023/01/04 02:05:28;;;;;;;2.73;1.80;;;;;;;6.19;84.27;101329.00;5047264;28;20239;-83
2023/01/04 02:07:55;;;;;;;3.47;1.80;;;;;;;6.19;84.53;101323.72;5050822;28;20711;-86
2023/01/04 02:10:22;;;;;;;4.80;2.60;;;;;;;6.19;84.20;101313.13;5050144;28;20216;-83
2023/01/04 02:12:51;;;;;;;3.23;2.00;;;;;;;6.23;84.08;101309.47;5052535;28;20206;-84
2023/01/04 02:15:18;;;;;;;3.87;2.00;;;;;;;6.21;83.76;101306.03;5052307;28;20612;-85
2023/01/04 02:17:52;;;;;;;4.00;1.63;;;;;;;6.23;84.10;101301.53;5048716;28;20230;-85
2023/01/04 02:20:31;;;;;;;4.97;2.03;;;;;;;6.25;83.77;101305.00;5051527;28;20236;-85
2023/01/04 02:23:28;;;;;;;3.67;2.37;;;;;;;6.27;83.76;101287.25;5044360;28;20603;-84
2023/01/04 02:26:18;;;;;;;5.20;2.07;;;;;;;6.30;83.81;101274.84;5052566;28;20221;-86
2023/01/04 02:29:04;;;;;;;4.23;1.80;;;;;;;6.32;83.57;101257.16;5047460;28;20229;-85
2023/01/04 02:31:39;;;;;;;4.33;1.80;;;;;;;6.32;83.97;101255.38;5051311;28;20208;-85
2023/01/04 02:34:16;;;;;;;3.93;2.57;;;;;;;6.32;83.51;101246.56;5053462;28;20284;-86
2023/01/04 02:36:53;;;;;;;3.80;1.87;;;;;;;6.32;84.21;101223.63;5045188;28;20198;-84
2023/01/04 02:39:34;;;;;;;2.37;1.87;;;;;;;6.35;83.79;101197.06;5050421;28;20198;-84
2023/01/04 02:42:07;;;;;;;3.47;1.90;;;;;;;6.40;83.69;101208.34;5043878;28;20209;-83
2023/01/04 02:44:52;;;;;;;3.20;1.67;;;;;;;6.45;83.51;101200.25;5046089;28;20210;-86
2023/01/04 02:50:32;;;;;;;2.23;1.87;;;;;;;6.58;83.10;101190.91;5045739;28;20197;-85
2023/01/04 02:53:01;;;;;;;1.97;1.73;;;;;;;6.61;82.67;101188.16;5044885;28;20292;-84
2023/01/04 02:55:38;;;;;;;5.93;1.80;;;;;;;6.70;81.95;101185.13;5052033;28;20206;-86
2023/01/04 02:58:09;;;;;;;5.07;1.90;;;;;;;6.70;82.33;101166.59;5048843;28;20236;-85
2023/01/04 03:06:34;;;;;;;2.27;1.80;;;;;;;6.81;80.70;101164.38;5048770;28;20721;-83
2023/01/04 03:09:06;;;;;;;3.40;1.80;;;;;;;6.80;81.58;101167.13;5050586;28;20232;-85
2023/01/04 03:14:29;;;;;;;3.70;2.10;;;;;;;6.87;80.48;101152.69;5049949;28;20352;-83
2023/01/04 03:16:56;;;;;;;5.77;2.13;;;;;;;6.89;80.86;101158.78;5047359;28;20675;-81
2023/01/04 03:35:21;;;;;;;3.10;1.80;;;;;;;6.94;80.61;101131.22;5050047;28;20206;-85
2023/01/04 03:36:17;;;;;;;6.87;2.30;;;;;;;7.01;80.43;101092.09;5049870;28;20200;-85
2023/01/04 03:50:07;;;;;;;5.50;2.03;;;;;;;7.11;80.16;101061.66;5054460;28;20643;-85
2023/01/04 03:52:36;;;;;;;2.77;1.83;;;;;;;7.19;80.18;101053.38;5052177;28;20703;-83
2023/01/04 03:55:06;;;;;;;3.73;2.10;;;;;;;7.19;80.78;101043.63;5049367;28;20205;-84
2023/01/04 03:57:33;;;;;;;5.30;2.10;;;;;;;7.21;80.65;101039.13;5048497;28;20245;-85
2023/01/04 04:00:08;;;;;;;2.63;1.70;;;;;;;7.26;81.77;101031.00;5050056;28;20210;-85
2023/01/04 04:02:35;;;;;;;2.87;1.60;;;;;;;7.28;81.54;101011.47;5046773;28;20279;-86
2023/01/04 04:10:31;;;;;;;2.07;1.33;;;;;;;7.39;82.87;101003.03;5047529;28;20699;-85
2023/01/04 04:12:57;;;;;;;3.30;1.40;;;;;;;7.42;83.44;101008.19;5047464;28;20209;-85
2023/01/04 04:15:24;;;;;;;2.97;1.83;;;;;;;7.47;83.10;101002.69;5043339;28;20221;-84
2023/01/04 04:17:50;;;;;;;3.90;1.67;;;;;;;7.46;83.54;100993.88;5049467;28;20810;-85
2023/01/04 04:20:18;;;;;;;2.83;1.50;;;;;;;7.50;83.45;100995.47;5043656;28;20209;-83
2023/01/04 04:22:44;;;;;;;4.50;1.70;;;;;;;7.50;83.80;100990.16;5053179;28;20209;-86
2023/01/04 04:25:12;;;;;;;3.20;1.70;;;;;;;7.50;83.98;100994.63;5049503;28;20225;-85
2023/01/04 04:27:38;;;;;;;5.23;1.70;;;;;;;7.51;84.48;100991.91;5046934;28;20221;-84
2023/01/04 04:30:06;;;;;;;3.57;1.37;;;;;;;7.48;84.31;100981.44;5052473;28;20220;-84
2023/01/04 04:32:33;;;;;;;3.97;1.77;;;;;;;7.49;84.50;100992.88;5048299;28;20201;-84
2023/01/04 04:34:59;;;;;;;2.40;1.50;;;;;;;7.46;84.95;100988.59;5042026;28;20864;-85
2023/01/04 04:37:27;;;;;;;5.00;2.13;;;;;;;7.48;85.12;100981.44;5045778;28;21304;-84
2023/01/04 04:39:53;;;;;;;3.17;1.50;;;;;;;7.50;85.76;100976.91;5046489;28;20263;-84
2023/01/04 04:42:20;;;;;;;4.40;1.53;;;;;;;7.53;85.37;100979.41;5048311;28;20209;-83
2023/01/04 04:44:49;;;;;;;4.80;1.67;;;;;;;7.52;85.90;100967.13;5045507;28;20215;-84
2023/01/04 04:47:16;;;;;;;3.23;1.50;;;;;;;7.61;87.04;100958.72;5049470;28;20232;-86
2023/01/04 04:49:42;;;;;;;3.10;1.43;;;;;;;7.60;86.21;100943.75;5048563;28;20205;-85
2023/01/04 04:52:09;;;;;;;2.67;1.43;;;;;;;7.64;87.39;100940.03;5053994;28;20209;-83
2023/01/04 04:54:35;;;;;;;4.47;1.70;;;;;;;7.66;86.82;100943.47;5048586;28;20237;-85
2023/01/04 04:57:02;;;;;;;3.33;1.60;;;;;;;7.64;87.11;100933.88;5050422;28;20220;-83
2023/01/04 04:59:30;;;;;;;3.13;1.43;;;;;;;7.61;88.01;100934.00;5049292;28;20209;-83
2023/01/04 05:01:56;;;;;;;3.07;1.30;;;;;;;7.59;88.27;100930.56;5047484;28;20209;-84
2023/01/04 05:04:23;;;;;;;3.47;1.57;;;;;;;7.58;88.72;100928.84;5044975;28;20206;-84
2023/01/04 05:06:51;;;;;;;4.00;1.43;;;;;;;7.54;89.02;100928.13;5049945;28;20695;-84
2023/01/04 05:09:18;;;;;;;2.67;1.50;;;;;;;7.59;89.55;100931.44;5047773;28;21166;-85
2023/01/04 05:14:30;;;;;;;2.83;1.80;;;;;;;7.56;90.12;100914.81;5046734;28;20213;-84
2023/01/04 05:16:56;;;;;;;2.30;1.43;;;;;;;7.57;90.36;100922.69;5049488;28;20204;-83
2023/01/04 05:19:23;;;;;;;2.60;1.37;;;;;;;7.57;89.73;100916.53;5047696;28;20702;-84
2023/01/04 05:21:49;;;;;;;2.67;1.60;;;;;;;7.58;90.97;100913.81;5053625;28;20679;-85
2023/01/04 05:24:16;;;;;;;1.20;1.00;;;;;;;7.63;90.83;100879.13;5048713;28;20661;-84
2023/01/04 05:26:42;;;;;;;2.87;1.57;;;;;;;7.66;90.05;100885.16;5049173;28;20234;-84
2023/01/04 05:30:49;;;;;;;3.27;1.23;;;;;;;7.64;89.99;100886.16;5050229;28;20222;-85
2023/01/04 05:31:56;;;;;;;2.13;1.33;;;;;;;7.63;90.32;100882.66;5049379;28;20202;-83
2023/01/04 05:34:22;;;;;;;3.33;1.30;;;;;;;7.69;89.74;100872.69;5049546;28;20668;-85
2023/01/04 05:36:49;;;;;;;3.43;1.40;;;;;;;7.71;89.57;100865.50;5035971;28;20204;-84
2023/01/04 05:39:15;;;;;;;3.97;1.47;;;;;;;7.74;90.11;100860.06;5046066;28;20316;-84
2023/01/04 05:44:25;;;;;;;2.97;1.20;;;;;;;7.76;90.14;100836.97;5052225;28;20216;-85
2023/01/04 05:46:52;;;;;;;3.20;1.60;;;;;;;7.77;89.66;100828.09;5049452;28;20228;-83
2023/01/04 05:49:20;;;;;;;3.00;1.40;;;;;;;7.76;90.08;100813.13;5052871;28;20230;-84
2023/01/04 05:51:46;;;;;;;2.23;1.50;;;;;;;7.74;89.80;100822.94;5053953;28;20205;-84
2023/01/04 05:54:13;;;;;;;1.47;1.10;;;;;;;7.79;90.36;100805.03;5054959;28;20680;-83
2023/01/04 05:56:39;;;;;;;1.87;1.30;;;;;;;7.77;91.06;100777.72;5048339;28;20792;-84
2023/01/04 05:59:05;;;;;;;1.87;1.30;;;;;;;7.79;90.66;100759.94;5046058;28;20256;-84
2023/01/04 06:01:32;;;;;;;2.50;1.50;;;;;;;7.83;90.22;100761.50;5044617;28;20205;-86
2023/01/04 06:03:58;;;;;;;1.97;1.07;;;;;;;7.85;90.93;100768.47;5049477;28;20214;-84
2023/01/04 06:06:26;;;;;;;2.43;1.27;;;;;;;7.87;91.12;100758.66;5050383;28;20227;-84
2023/01/04 06:08:53;;;;;;;2.77;0.90;;;;;;;7.94;91.34;100780.38;5047472;28;20232;-85
2023/01/04 06:11:19;;;;;;;2.07;1.17;;;;;;;7.93;91.63;100757.44;5044200;28;20202;-85
2023/01/04 06:13:45;;;;;;;3.30;1.47;;;;;;;7.92;91.09;100755.72;5055348;28;20209;-84
2023/01/04 06:16:12;;;;;;;1.93;1.40;;;;;;;7.86;91.89;100745.47;5055093;28;20210;-85
2023/01/04 06:18:38;;;;;;;1.93;0.93;;;;;;;7.87;91.93;100748.03;5053819;28;20229;-82
2023/01/04 06:21:05;;;;;;;2.23;1.40;;;;;;;7.88;91.63;100757.69;5056914;28;20218;-83
2023/01/04 06:23:33;;;;;;;1.70;0.97;;;;;;;7.88;92.93;100747.06;5056566;28;20213;-83
2023/01/04 06:25:59;;;;;;;2.00;0.93;;;;;;;7.91;91.78;100740.75;5056528;28;20241;-83
2023/01/04 06:28:25;;;;;;;2.23;1.53;;;;;;;7.90;92.49;100725.78;5054034;28;20233;-84
2023/01/04 06:30:52;;;;;;;2.37;1.30;;;;;;;7.83;92.28;100729.69;5058457;28;20212;-83
2023/01/04 06:33:18;;;;;;;2.73;1.10;;;;;;;7.84;93.22;100739.38;5046868;28;20565;-84
2023/01/04 06:35:45;;;;;;;3.17;1.10;;;;;;;7.86;92.76;100722.47;5048406;28;20198;-84
2023/01/04 06:38:11;;;;;;;2.53;1.20;;;;;;;7.90;92.85;100712.53;5048099;28;20229;-84
2023/01/04 06:40:39;;;;;;;1.40;1.13;;;;;;;7.93;92.49;100713.22;5051059;28;20213;-82
2023/01/04 06:43:05;;;;;;;3.60;0.90;;;;;;;7.92;93.46;100721.25;5048451;28;20221;-83
2023/01/04 06:45:32;;;;;;;1.03;0.90;;;;;;;7.94;92.79;100711.44;5053485;28;20232;-84
2023/01/04 06:47:58;;;;;;;1.20;1.00;;;;;;;7.98;92.72;100705.91;5053148;28;20237;-84
2023/01/04 06:50:25;;;;;;;2.13;1.03;;;;;;;7.97;92.36;100709.50;5054373;28;20216;-82
2023/01/04 06:52:51;;;;;;;1.20;1.03;;;;;;;8.01;92.62;100689.84;5054314;28;20205;-83
2023/01/04 06:55:18;;;;;;;2.73;1.23;;;;;;;8.00;93.17;100698.72;5053949;28;20213;-84
2023/01/04 06:57:46;;;;;;;1.60;0.93;;;;;;;8.08;92.97;100708.06;5048946;28;20229;-84
2023/01/04 07:00:13;;;;;;;1.80;0.93;;;;;;;8.07;92.54;100690.44;5051727;28;20201;-83
2023/01/04 07:02:40;;;;;;;1.80;1.10;;;;;;;8.09;93.03;100681.47;5050338;28;20209;-84
2023/01/04 07:05:07;;;;;;;2.23;1.07;;;;;;;8.13;92.57;100669.75;5051299;28;20707;-84
2023/01/04 07:07:34;;;;;;;1.80;1.10;;;;;;;8.18;92.78;100694.25;5054967;28;20237;-83
2023/01/04 07:10:01;;;;;;;1.50;1.10;;;;;;;8.25;92.54;100682.38;5056729;28;20209;-85
2023/01/04 07:12:27;;;;;;;0.80;0.80;;;;;;;8.23;92.04;100694.03;5051675;28;20660;-84
2023/01/04 07:14:55;;;;;;;1.43;1.10;;;;;;;8.24;92.49;100683.28;5054245;28;20574;-84
2023/01/04 07:17:21;;;;;;;2.27;1.13;;;;;;;8.23;93.20;100696.69;5047056;28;20587;-84
2023/01/04 07:19:48;;;;;;;2.23;0.97;;;;;;;8.24;92.61;100680.66;5051370;28;20608;-84
2023/01/04 07:22:14;;;;;;;1.47;1.20;;;;;;;8.30;92.81;100693.59;5048306;28;20232;-85
2023/01/04 07:24:42;;;;;;;2.07;1.00;;;;;;;8.33;92.47;100685.50;5051292;28;20197;-82
2023/01/04 07:27:09;;;;;;;1.53;0.90;;;;;;;8.36;92.34;100689.81;5053659;28;20229;-83
2023/01/04 07:29:36;;;;;;;0.93;0.60;;;;;;;8.39;92.44;100668.41;5052944;28;20221;-85
2023/01/04 07:32:04;;;;;;;0.70;0.70;;;;;;;8.39;92.74;100671.06;5059801;28;20209;-85
2023/01/04 07:34:31;;;;;;;2.50;0.80;;;;;;;8.40;92.43;100663.97;5050925;28;20208;-85
2023/01/04 07:36:57;;;;;;;1.83;0.83;;;;;;;8.46;91.97;100679.53;5051512;28;20209;-85
2023/01/04 07:39:24;;;;;;;1.33;0.43;;;;;;;8.53;92.41;100649.06;5050734;28;20223;-83
2023/01/04 07:41:50;;;;;;;0.93;0.67;;;;;;;8.56;92.20;100663.03;5051603;28;20235;-84
2023/01/04 07:44:17;;;;;;;1.37;0.73;;;;;;;8.57;91.63;100666.56;5049822;28;20202;-83
2023/01/04 07:46:44;;;;;;;1.33;0.70;;;;;;;8.57;91.98;100637.34;5050504;28;20222;-84
2023/01/04 07:49:14;;;;;;;0.60;0.60;;;;;;;8.62;91.85;100648.56;5051514;28;20717;-83
2023/01/04 07:51:40;;;;;;;2.33;0.90;;;;;;;8.59;91.61;100648.75;5052249;28;20201;-85
2023/01/04 07:54:06;;;;;;;2.23;0.90;;;;;;;8.59;91.95;100654.06;5052237;28;20212;-83
2023/01/04 07:56:33;;;;;;;0.70;0.47;;;;;;;8.65;91.62;100653.69;5049064;28;20199;-84
2023/01/04 07:58:59;;;;;;;2.70;0.83;;;;;;;8.66;91.46;100658.06;5047853;28;20248;-84
2023/01/04 08:01:27;;;;;;;0.60;0.50;;;;;;;8.73;91.50;100656.81;5046228;28;20661;-83
2023/01/04 08:03:54;;;;;;;1.40;0.60;;;;;;;8.73;91.06;100669.22;5050322;28;20217;-84
2023/01/04 08:06:22;;;;;;;0.90;0.70;;;;;;;8.77;91.55;100674.28;5045445;28;20261;-85
2023/01/04 08:08:49;;;;;;;1.73;0.57;;;;;;;8.78;91.66;100665.34;5049991;28;20218;-85
2023/01/04 08:11:17;;;;;;;0.70;0.70;;;;;;;8.76;91.68;100669.91;5044312;28;20645;-84
2023/01/04 08:13:44;;;;;;;0.90;0.67;;;;;;;8.72;91.78;100663.06;5047554;28;20278;-84
2023/01/04 08:16:18;;;;;;;1.33;0.77;;;;;;;8.73;92.30;100677.19;5049205;28;20205;-84
2023/01/04 08:18:44;;;;;;;1.20;0.80;;;;;;;8.76;92.07;100661.94;5050138;28;20233;-83
2023/01/04 08:21:11;;;;;;;1.70;0.70;;;;;;;8.82;92.09;100674.84;5046851;28;20205;-85
2023/01/04 08:23:38;;;;;;;0.93;0.70;;;;;;;8.85;91.73;100672.03;5050241;28;20209;-85
2023/01/04 08:26:07;;;;;;;2.03;0.80;;;;;;;8.88;91.82;100663.91;5048290;28;20233;-85
2023/01/04 08:28:34;;;;;;;0.97;0.87;;;;;;;8.84;91.66;100680.94;5052224;28;20232;-84
2023/01/04 08:31:05;;;;;;;0.97;0.77;;;;;;;8.86;91.73;100664.94;5045806;28;20228;-85
2023/01/04 08:33:32;;;;;;;2.23;1.00;;;;;;;8.90;92.13;100672.66;5051468;28;20201;-83
2023/01/04 08:36:07;;;;;;;0.80;0.50;;;;;;;8.93;91.85;100648.56;5048095;28;20325;-84
2023/01/04 08:38:33;;;;;;;1.60;0.87;;;;;;;8.91;91.54;100655.78;5046088;28;20221;-84
2023/01/04 08:41:01;;;;;;;1.53;0.83;;;;;;;8.88;92.35;100658.59;5047145;28;20205;-83
2023/01/04 08:43:28;;;;;;;1.27;0.80;;;;;;;8.91;92.87;100663.75;5047974;28;20205;-84
2023/01/04 08:45:54;;;;;;;0.70;0.60;;;;;;;8.91;93.22;100650.47;5051947;28;20201;-84
2023/01/04 08:48:21;;;;;;;0.63;0.60;;;;;;;8.91;93.13;100633.66;5048441;28;20242;-84
2023/01/04 08:50:47;;;;;;;1.33;0.80;;;;;;;8.92;93.40;100628.28;5051044;28;20217;-84
2023/01/04 08:53:14;;;;;;;1.37;1.07;;;;;;;8.87;93.58;100617.03;5048814;28;20205;-84
2023/01/04 08:55:40;;;;;;;0.70;0.70;;;;;;;8.90;94.13;100640.78;5054262;28;20201;-86
2023/01/04 08:58:08;;;;;;;1.53;0.80;;;;;;;8.93;93.47;100621.16;5048110;28;20321;-84
2023/01/04 09:00:35;;;;;;;1.37;0.70;;;;;;;8.94;94.17;100637.00;5050754;28;20201;-84
2023/01/04 09:03:01;;;;;;;1.20;0.70;;;;;;;8.93;93.70;100637.94;5050835;28;20213;-83
2023/01/04 09:05:27;;;;;;;1.47;0.70;;;;;;;8.99;94.20;100626.09;5051349;28;20205;-83
2023/01/04 09:07:54;;;;;;;2.60;1.03;;;;;;;8.97;93.48;100650.09;5045658;28;20245;-84
2023/01/04 09:10:20;;;;;;;1.33;0.80;;;;;;;8.97;94.02;100654.53;5041357;28;20202;-85
2023/01/04 09:12:47;;;;;;;0.93;0.67;;;;;;;8.96;94.62;100631.59;5041498;28;20206;-84
2023/01/04 09:15:15;;;;;;;2.17;1.43;;;;;;;8.95;94.60;100627.25;5045894;28;20201;-86
2023/01/04 09:17:42;;;;;;;1.33;0.93;;;;;;;8.93;94.58;100634.44;5051492;28;20228;-85
2023/01/04 09:20:08;;;;;;;1.33;1.10;;;;;;;8.90;94.94;100651.41;5054034;28;20206;-85
2023/01/04 09:22:35;;;;;;;1.93;0.93;;;;;;;8.91;95.13;100633.66;5054779;28;20209;-85
2023/01/04 09:25:01;;;;;;;0.80;0.77;;;;;;;8.90;95.73;100640.78;5052640;28;20296;-85
2023/01/04 09:27:30;;;;;;;1.83;1.10;;;;;;;8.87;95.76;100643.59;5060754;28;20237;-84
2023/01/04 09:29:57;;;;;;;1.80;1.00;;;;;;;8.88;95.60;100640.00;5049311;28;20736;-84
2023/01/04 09:32:25;;;;;;;1.23;0.90;;;;;;;8.85;96.16;100632.19;5049689;28;20661;-84
2023/01/04 09:34:51;;;;;;;1.37;0.87;;;;;;;8.84;96.23;100637.59;5052754;28;20210;-84
2023/01/04 09:37:18;;;;;;;1.43;0.80;;;;;;;8.82;96.73;100620.88;5049624;28;20210;-84
2023/01/04 09:39:46;;;;;;;1.50;0.70;;;;;;;8.79;97.01;100635.19;5052786;28;20205;-84
2023/01/04 09:42:18;;;;;;;1.13;1.03;;;;;;;8.80;97.66;100630.75;5053951;28;20294;-85
2023/01/04 09:44:49;;;;;;;1.57;0.70;;;;;;;8.80;98.30;100622.78;5053860;28;20657;-86
2023/01/04 09:47:20;;;;;;;0.90;0.70;;;;;;;8.80;98.13;100615.66;5055503;28;20708;-85
2023/01/04 09:49:52;;;;;;;2.10;0.80;;;;;;;8.82;98.47;100613.78;5055103;28;20201;-83
2023/01/04 09:52:23;;;;;;;1.33;0.73;;;;;;;8.81;98.66;100614.72;5057313;28;20209;-84
2023/01/04 09:54:54;;;;;;;1.13;0.80;;;;;;;8.82;98.41;100620.88;5056254;28;20208;-85
2023/01/04 09:57:24;;;;;;;1.67;0.67;;;;;;;8.81;98.52;100598.78;5055557;28;20253;-85
2023/01/04 09:59:56;;;;;;;1.10;0.70;;;;;;;8.89;98.96;100609.00;5054204;28;20205;-84
2023/01/04 10:02:29;;;;;;;0.87;0.60;;;;;;;8.92;98.22;100620.31;5052733;28;20206;-84
2023/01/04 10:05:00;;;;;;;2.37;0.47;;;;;;;9.00;98.78;100606.56;5054991;28;20209;-84
2023/01/04 10:07:29;;;;;;;0.53;0.50;;;;;;;8.98;98.00;100606.66;5051938;28;20322;-82
2023/01/04 10:09:56;;;;;;;0.50;0.50;;;;;;;9.03;97.82;100596.63;5050091;28;20206;-86
2023/01/04 10:12:36;;;;;;;1.17;0.67;;;;;;;9.08;97.61;100598.16;5046525;28;20585;-85
2023/01/04 10:15:19;;;;;;;1.93;0.60;;;;;;;9.11;97.34;100604.16;5045784;28;20549;-84
2023/01/04 10:18:04;;;;;;;0.83;0.60;;;;;;;9.10;96.85;100588.31;5045949;28;20233;-82
2023/01/04 10:20:53;;;;;;;0.97;0.50;;;;;;;9.13;97.36;100581.03;5049668;28;20578;-83
2023/01/04 10:23:32;;;;;;;0.67;0.50;;;;;;;9.16;96.65;100585.28;5040527;28;20616;-86
2023/01/04 10:26:07;;;;;;;1.47;0.50;;;;;;;9.19;96.99;100590.41;5050428;28;20221;-82
2023/01/04 10:28:52;;;;;;;2.60;1.10;;;;;;;9.27;96.50;100588.19;5045906;28;20225;-84
2023/01/04 10:31:24;;;;;;;1.50;0.60;;;;;;;9.27;96.25;100593.50;5051964;28;20199;-84
2023/01/04 10:33:58;;;;;;;1.57;0.60;;;;;;;9.30;96.01;100583.53;5046913;28;20209;-84
2023/01/04 10:36:30;;;;;;;1.07;0.47;;;;;;;9.33;95.95;100562.06;5044868;28;20212;-84
2023/01/04 10:39:00;;;;;;;0.40;0.40;;;;;;;9.37;95.91;100560.09;5043766;28;20256;-83
2023/01/04 10:41:31;;;;;;;1.20;0.67;;;;;;;9.39;95.95;100560.88;5044650;28;20570;-84
2023/01/04 10:44:08;;;;;;;0.80;0.67;;;;;;;9.44;95.28;100564.09;5050352;28;20209;-83
2023/01/04 10:46:43;;;;;;;0.60;0.60;;;;;;;9.43;95.80;100556.22;5046275;28;20208;-84
2023/01/04 10:49:15;;;;;;;1.23;0.80;;;;;;;9.43;96.08;100549.09;5045585;28;20221;-85
2023/01/04 10:51:51;;;;;;;0.90;0.40;;;;;;;9.42;96.30;100547.41;5043810;28;20190;-84
2023/01/04 10:54:27;;;;;;;0.47;0.43;;;;;;;9.43;96.50;100543.78;5044075;28;20209;-84
2023/01/04 10:56:58;;;;;;;0.67;0.67;;;;;;;9.39;96.98;100544.91;5045976;28;20648;-85
2023/01/04 10:59:34;;;;;;;0.83;0.60;;;;;;;9.38;97.41;100538.75;5048454;28;20217;-83
2023/01/04 11:02:09;;;;;;;1.03;0.53;;;;;;;9.43;97.89;100530.50;5046961;28;20206;-85
2023/01/04 11:04:39;;;;;;;1.50;0.63;;;;;;;9.39;97.76;100527.16;5045925;28;20205;-84
2023/01/04 11:07:12;;;;;;;1.00;0.60;;;;;;;9.41;98.31;100545.69;5046067;28;20214;-83
2023/01/04 11:09:44;;;;;;;0.73;0.50;;;;;;;9.37;98.81;100528.19;5043252;28;20201;-84
2023/01/04 11:12:13;;;;;;;1.13;0.50;;;;;;;9.43;99.55;100542.94;5042420;28;20201;-83
2023/01/04 11:14:39;;;;;;;0.70;0.70;;;;;;;9.41;99.83;100535.06;5044722;28;20202;-84
2023/01/04 11:17:08;;;;;;;1.70;0.40;;;;;;;9.42;99.91;100528.78;5041315;28;20236;-83
2023/01/04 11:19:35;;;;;;;0.40;0.40;;;;;;;9.39;100.00;100521.84;5044825;28;20229;-85
2023/01/04 11:22:10;;;;;;;1.03;0.40;;;;;;;9.44;100.00;100526.91;5044326;28;20220;-83
2023/01/04 11:24:41;;;;;;;0.50;0.50;;;;;;;9.43;100.00;100525.19;5042826;28;20198;-85
2023/01/04 11:27:15;;;;;;;0.57;0.57;;;;;;;9.45;100.00;100531.25;5043386;28;20225;-85
2023/01/04 11:29:49;;;;;;;1.37;0.47;;;;;;;9.50;100.00;100520.31;5046512;28;20209;-85
2023/01/04 11:32:32;;;;;;;0.80;0.60;;;;;;;9.49;100.00;100521.31;5045383;28;20657;-85
2023/01/04 11:34:58;;;;;;;0.83;0.70;;;;;;;9.43;100.00;100506.56;5040154;28;20213;-85
2023/01/04 11:37:32;;;;;;;0.57;0.50;;;;;;;9.45;100.00;100512.66;5040495;28;20226;-85
2023/01/04 11:40:22;;;;;;;0.90;0.67;;;;;;;9.46;100.00;100492.25;5039488;28;20210;-85
2023/01/04 11:42:51;;;;;;;0.50;0.50;;;;;;;9.45;100.00;100517.97;5044275;28;20200;-86
2023/01/04 11:45:20;;;;;;;0.50;0.50;;;;;;;9.44;100.00;100510.09;5043053;28;20209;-84
2023/01/04 11:47:48;;;;;;;0.23;0.23;;;;;;;9.47;100.00;100497.47;5042438;28;20221;-85
2023/01/04 11:50:34;;;;;;;0.77;0.50;;;;;;;9.49;100.00;100495.59;5042020;28;20217;-85
2023/01/04 11:53:01;;;;;;;0.97;0.60;;;;;;;9.49;100.00;100490.25;5041755;28;20203;-84
2023/01/04 11:55:30;;;;;;;1.00;0.70;;;;;;;9.47;100.00;100491.31;5040940;28;20204;-85
2023/01/04 11:58:06;;;;;;;0.50;0.50;;;;;;;9.51;100.00;100491.00;5042665;28;21190;-85
2023/01/04 12:00:33;;;;;;;0.87;0.63;;;;;;;9.48;100.00;100480.56;5038314;28;20206;-85
2023/01/04 12:03:11;;;;;;;0.70;0.50;;;;;;;9.50;100.00;100491.09;5037183;28;20594;-85
2023/01/04 12:05:38;;;;;;;0.90;0.60;;;;;;;9.51;100.00;100483.03;5045186;28;20210;-85
2023/01/04 12:08:06;;;;;;;2.10;1.30;;;;;;;9.51;100.00;100485.69;5044261;28;20241;-84
2023/01/04 12:10:33;;;;;;;0.63;0.60;;;;;;;9.52;100.00;100468.78;5041508;28;20213;-85
2023/01/04 12:13:01;;;;;;;1.10;0.90;;;;;;;9.54;100.00;100471.34;5042709;28;20201;-84
2023/01/04 12:15:34;;;;;;;0.50;0.50;;;;;;;9.56;100.00;100464.13;5041894;28;20206;-84
2023/01/04 12:18:06;;;;;;;2.10;1.90;;;;;;;9.60;100.00;100465.66;5044719;28;20229;-85
2023/01/04 12:20:32;;;;;;;1.30;0.60;;;;;;;9.61;100.00;100462.91;5042247;28;20209;-83
2023/01/04 12:22:59;;;;;;;1.43;0.80;;;;;;;9.64;100.00;100461.88;5043344;28;20206;-84
2023/01/04 12:25:34;;;;;;;0.43;0.40;;;;;;;9.65;100.00;100456.47;5040067;28;20205;-85
2023/01/04 12:28:02;;;;;;;0.23;0.20;;;;;;;9.67;100.00;100435.09;5045928;28;20233;-85
2023/01/04 12:30:35;;;;;;;0.30;0.30;;;;;;;9.72;100.00;100448.94;5041232;28;20213;-83